createdAt,value
2022-09-15T00:02:20.671Z,77.82
2022-09-15T00:04:47.027Z,77.83
2022-09-15T00:07:13.320Z,77.99
2022-09-15T00:09:39.667Z,77.95
2022-09-15T00:12:06.127Z,77.54
2022-09-15T00:14:32.495Z,77.61
2022-09-15T00:16:58.858Z,77.82
2022-09-15T00:19:25.199Z,77.68
2022-09-15T00:21:51.591Z,77.83
2022-09-15T00:24:17.903Z,77.75
2022-09-15T00:26:44.306Z,77.79
2022-09-15T00:29:11.163Z,77.95
2022-09-15T00:31:37.521Z,78.45
2022-09-15T00:34:04.079Z,78.35
2022-09-15T00:36:30.488Z,78.35
2022-09-15T00:38:57.707Z,78.63
2022-09-15T00:41:24.547Z,78.48
2022-09-15T00:44:06.030Z,79.26
2022-09-15T00:46:35.070Z,78.68
2022-09-15T00:49:25.893Z,78.85
2022-09-15T00:51:57.250Z,78.71
2022-09-15T00:54:31.228Z,78.42
2022-09-15T00:57:02.517Z,78.45
2022-09-15T00:59:31.934Z,78.57
2022-09-15T01:02:11.916Z,79.03
2022-09-15T01:04:38.309Z,78.61
2022-09-15T01:07:08.093Z,78.60
2022-09-15T01:09:41.654Z,78.42
2022-09-15T01:12:08.018Z,78.71
2022-09-15T01:14:34.480Z,78.81
2022-09-15T01:17:10.333Z,78.77
2022-09-15T01:20:01.725Z,79.03
2022-09-15T01:22:46.055Z,79.48
2022-09-15T01:25:43.525Z,79.36
2022-09-15T01:28:47.504Z,79.62
2022-09-15T01:31:26.067Z,80.25
2022-09-15T01:34:05.846Z,80.53
2022-09-15T01:36:47.112Z,80.58
2022-09-15T01:39:20.851Z,80.34
2022-09-15T01:41:57.624Z,80.37
2022-09-15T01:44:28.948Z,80.49
2022-09-15T01:47:00.117Z,80.62
2022-09-15T01:49:34.226Z,81.15
2022-09-15T01:52:01.070Z,81.07
2022-09-15T01:54:32.887Z,81.20
2022-09-15T01:56:59.463Z,81.17
2022-09-15T01:59:25.889Z,81.03
2022-09-15T02:02:16.225Z,80.81
2022-09-15T02:04:49.741Z,81.07
2022-09-15T02:07:31.925Z,81.07
2022-09-15T02:10:11.533Z,81.19
2022-09-15T02:13:11.144Z,81.65
2022-09-15T02:15:42.749Z,81.35
2022-09-15T02:18:13.018Z,81.29
2022-09-15T02:20:49.888Z,81.25
2022-09-15T02:23:26.148Z,81.24
2022-09-15T02:25:59.461Z,81.04
2022-09-15T02:28:30.004Z,81.17
2022-09-15T02:30:59.093Z,81.41
2022-09-15T02:33:32.872Z,81.51
2022-09-15T02:36:00.098Z,81.67
2022-09-15T02:38:30.386Z,81.61
2022-09-15T02:40:57.018Z,81.79
2022-09-15T02:43:23.413Z,82.09
2022-09-15T02:45:49.793Z,82.05
2022-09-15T02:48:16.163Z,82.20
2022-09-15T02:50:42.488Z,82.12
2022-09-15T02:53:09.059Z,82.27
2022-09-15T02:55:35.375Z,82.16
2022-09-15T02:58:01.878Z,81.96
2022-09-15T03:00:28.894Z,82.11
2022-09-15T03:02:56.173Z,82.27
2022-09-15T03:05:31.368Z,82.30
2022-09-15T03:07:57.733Z,82.41
2022-09-15T03:10:24.915Z,82.44
2022-09-15T03:12:53.511Z,82.39
2022-09-15T03:15:23.311Z,82.30
2022-09-15T03:17:50.454Z,82.21
2022-09-15T03:20:20.874Z,82.08
2022-09-15T03:22:48.094Z,82.09
2022-09-15T03:25:14.495Z,82.13
2022-09-15T03:27:40.856Z,82.16
2022-09-15T03:30:08.291Z,82.04
2022-09-15T03:32:34.713Z,82.26
2022-09-15T03:35:01.015Z,82.34
2022-09-15T03:37:27.674Z,82.24
2022-09-15T03:39:54.122Z,82.08
2022-09-15T03:42:20.588Z,82.00
2022-09-15T03:44:47.144Z,82.32
2022-09-15T03:47:13.503Z,82.28
2022-09-15T03:49:39.809Z,82.31
2022-09-15T03:52:06.098Z,82.21
2022-09-15T03:54:32.492Z,82.29
2022-09-15T03:56:58.892Z,82.41
2022-09-15T03:59:25.206Z,82.63
2022-09-15T04:01:51.595Z,82.49
2022-09-15T04:04:18.142Z,82.27
2022-09-15T04:06:44.892Z,82.25
2022-09-15T04:09:11.409Z,82.05
2022-09-15T04:11:38.127Z,81.75
2022-09-15T04:14:04.516Z,81.28
2022-09-15T04:16:30.939Z,81.22
2022-09-15T04:18:57.863Z,81.35
2022-09-15T04:21:26.598Z,81.54
2022-09-15T04:23:54.018Z,81.45
2022-09-15T04:26:31.112Z,81.26
2022-09-15T04:29:01.573Z,81.24
2022-09-15T04:31:30.544Z,81.22
2022-09-15T04:33:57.157Z,81.10
2022-09-15T04:36:25.672Z,81.31
2022-09-15T04:38:52.652Z,80.98
2022-09-15T04:41:20.798Z,81.21
2022-09-15T04:43:47.231Z,81.20
2022-09-15T04:46:14.119Z,81.29
2022-09-15T04:48:40.788Z,81.05
2022-09-15T04:51:10.285Z,80.76
2022-09-15T04:53:37.084Z,80.61
2022-09-15T04:56:11.131Z,80.83
2022-09-15T04:58:42.403Z,80.58
2022-09-15T05:01:19.038Z,80.59
2022-09-15T05:03:46.804Z,80.36
2022-09-15T05:06:16.115Z,80.51
2022-09-15T05:08:42.836Z,80.35
2022-09-15T05:11:11.479Z,80.23
2022-09-15T05:13:39.789Z,80.25
2022-09-15T05:16:12.284Z,80.23
2022-09-15T05:18:39.678Z,80.08
2022-09-15T05:21:07.524Z,80.09
2022-09-15T05:23:35.133Z,79.78
2022-09-15T05:26:04.284Z,79.60
2022-09-15T05:28:33.780Z,79.38
2022-09-15T05:31:00.384Z,79.27
2022-09-15T05:33:26.787Z,79.05
2022-09-15T05:35:55.343Z,79.07
2022-09-15T05:38:22.432Z,78.92
2022-09-15T05:40:49.072Z,78.71
2022-09-15T05:43:17.097Z,78.60
2022-09-15T05:45:44.191Z,78.63
2022-09-15T05:48:11.948Z,78.58
2022-09-15T05:50:39.404Z,78.43
2022-09-15T05:53:07.430Z,78.47
2022-09-15T05:55:38.091Z,78.15
2022-09-15T05:58:04.461Z,77.77
2022-09-15T06:00:30.867Z,77.79
2022-09-15T06:02:57.308Z,77.52
2022-09-15T06:05:24.412Z,77.63
2022-09-15T06:07:54.360Z,77.58
2022-09-15T06:10:24.619Z,77.33
2022-09-15T06:12:55.167Z,77.16
2022-09-15T06:15:22.623Z,76.89
2022-09-15T06:17:49.355Z,76.82
2022-09-15T06:20:15.715Z,76.50
2022-09-15T06:22:42.117Z,76.39
2022-09-15T06:25:08.862Z,76.24
2022-09-15T06:27:35.165Z,76.07
2022-09-15T06:30:01.672Z,76.02
2022-09-15T06:32:27.967Z,76.14
2022-09-15T06:34:54.284Z,76.23
2022-09-15T06:37:20.604Z,75.75
2022-09-15T06:39:47.055Z,75.75
2022-09-15T06:42:14.048Z,75.85
2022-09-15T06:44:40.407Z,75.88
2022-09-15T06:47:07.331Z,75.68
2022-09-15T06:49:33.669Z,75.65
2022-09-15T06:52:02.449Z,75.32
2022-09-15T06:54:28.785Z,75.20
2022-09-15T06:56:55.103Z,74.80
2022-09-15T06:59:23.804Z,74.69
2022-09-15T07:01:55.000Z,73.96
2022-09-15T07:04:22.028Z,73.50
2022-09-15T07:06:48.719Z,72.67
2022-09-15T07:09:15.089Z,72.34
2022-09-15T07:11:41.463Z,72.45
2022-09-15T07:14:08.321Z,72.43
2022-09-15T07:16:34.733Z,72.22
2022-09-15T07:19:03.349Z,72.31
2022-09-15T07:21:29.728Z,72.58
2022-09-15T07:23:57.653Z,72.48
2022-09-15T07:26:26.523Z,73.10
2022-09-15T07:29:05.208Z,73.28
2022-09-15T07:31:34.412Z,73.61
2022-09-15T07:34:02.105Z,73.55
2022-09-15T07:36:29.858Z,73.71
2022-09-15T07:38:56.266Z,73.38
2022-09-15T07:41:27.292Z,73.18
2022-09-15T07:43:56.173Z,72.50
2022-09-15T07:46:24.465Z,72.21
2022-09-15T07:48:53.679Z,71.89
2022-09-15T07:51:20.124Z,72.13
2022-09-15T07:53:48.039Z,72.11
2022-09-15T07:56:15.353Z,71.78
2022-09-15T07:58:41.674Z,70.19
2022-09-15T08:01:11.528Z,70.55
2022-09-15T08:03:42.683Z,70.08
2022-09-15T08:06:10.065Z,70.48
2022-09-15T08:08:40.937Z,70.31
2022-09-15T08:11:09.014Z,69.56
2022-09-15T08:13:35.924Z,68.72
2022-09-15T08:16:14.098Z,68.77
2022-09-15T08:18:42.427Z,68.26
2022-09-15T08:21:11.845Z,68.28
2022-09-15T08:23:38.355Z,68.23
2022-09-15T08:26:13.621Z,67.99
2022-09-15T08:28:40.700Z,67.50
2022-09-15T08:31:09.423Z,67.31
2022-09-15T08:33:36.496Z,67.14
2022-09-15T08:36:10.754Z,66.55
2022-09-15T08:38:41.325Z,66.18
2022-09-15T08:41:11.998Z,65.56
2022-09-15T08:43:51.623Z,65.84
2022-09-15T08:46:24.493Z,64.97
2022-09-15T08:49:26.841Z,64.27
2022-09-15T08:52:07.011Z,64.54
2022-09-15T08:54:33.888Z,64.70
2022-09-15T08:57:01.083Z,64.85
2022-09-15T08:59:33.800Z,64.87
2022-09-15T09:02:46.349Z,65.31
2022-09-15T09:05:30.811Z,65.00
2022-09-15T09:08:02.899Z,65.23
2022-09-15T09:10:36.573Z,64.68
2022-09-15T09:13:17.030Z,63.89
2022-09-15T09:15:49.137Z,63.89
2022-09-15T09:18:27.623Z,63.67
2022-09-15T09:20:59.876Z,63.59
2022-09-15T09:23:29.379Z,63.74
2022-09-15T09:25:57.464Z,64.04
2022-09-15T09:28:31.378Z,64.69
2022-09-15T09:31:08.225Z,65.63
2022-09-15T09:33:47.481Z,66.84
2022-09-15T09:36:14.920Z,66.02
2022-09-15T09:38:44.575Z,66.07
2022-09-15T09:41:19.801Z,65.57
2022-09-15T09:43:48.927Z,66.15
2022-09-15T09:46:18.276Z,65.63
2022-09-15T09:48:50.545Z,66.43
2022-09-15T09:51:33.511Z,66.20
2022-09-15T09:54:20.592Z,65.23
2022-09-15T09:56:51.631Z,64.95
2022-09-15T09:59:43.992Z,64.69
2022-09-15T10:02:20.606Z,64.66
2022-09-15T10:04:52.673Z,64.18
2022-09-15T10:07:22.923Z,63.76
2022-09-15T10:09:52.908Z,63.72
2022-09-15T10:12:23.533Z,62.34
2022-09-15T10:14:53.684Z,62.96
2022-09-15T10:17:23.670Z,62.80
2022-09-15T10:19:54.973Z,61.78
2022-09-15T10:22:24.786Z,61.73
2022-09-15T10:24:51.306Z,63.61
2022-09-15T10:27:32.569Z,64.38
2022-09-15T10:30:16.463Z,65.03
2022-09-15T10:32:43.198Z,66.39
2022-09-15T10:35:09.762Z,66.80
2022-09-15T10:38:08.836Z,66.07
2022-09-15T10:41:13.726Z,63.96
2022-09-15T10:44:01.925Z,63.02
2022-09-15T10:46:53.785Z,62.93
2022-09-15T10:49:44.503Z,62.06
2022-09-15T10:52:19.960Z,61.06
2022-09-15T10:55:07.816Z,59.94
2022-09-15T10:58:07.068Z,58.61
2022-09-15T11:00:54.998Z,58.48
2022-09-15T11:03:44.526Z,56.74
2022-09-15T11:06:29.819Z,57.36
2022-09-15T11:09:13.572Z,57.04
2022-09-15T11:11:52.638Z,55.95
2022-09-15T11:14:48.743Z,54.99
2022-09-15T11:17:37.244Z,55.78
2022-09-15T11:20:11.477Z,54.81
2022-09-15T11:22:49.671Z,53.90
2022-09-15T11:25:23.196Z,52.39
2022-09-15T11:27:59.967Z,52.54
2022-09-15T11:30:35.035Z,50.42
2022-09-15T11:33:18.075Z,50.63
2022-09-15T11:36:13.010Z,48.95
2022-09-15T11:38:49.634Z,49.48
2022-09-15T11:41:20.047Z,50.25
2022-09-15T11:44:17.038Z,50.78
2022-09-15T11:46:57.466Z,50.31
2022-09-15T11:49:31.314Z,50.10
2022-09-15T11:52:18.848Z,49.78
2022-09-15T11:54:54.024Z,49.79
2022-09-15T11:57:30.363Z,49.24
2022-09-15T12:00:10.585Z,48.42
2022-09-15T12:02:42.866Z,47.91
2022-09-15T12:05:22.097Z,46.99
2022-09-15T12:07:54.538Z,44.88
2022-09-15T12:10:28.530Z,44.49
2022-09-15T12:12:56.223Z,43.69
2022-09-15T12:15:27.309Z,43.73
2022-09-15T12:18:37.348Z,41.54
2022-09-15T12:21:23.803Z,41.71
2022-09-15T12:24:05.182Z,41.39
2022-09-15T12:26:33.523Z,40.71
2022-09-15T12:29:02.493Z,39.27
2022-09-15T12:31:37.845Z,41.39
2022-09-15T12:34:25.736Z,43.17
2022-09-15T12:36:54.038Z,43.26
2022-09-15T12:39:51.098Z,45.40
2022-09-15T12:42:33.188Z,45.69
2022-09-15T12:45:06.732Z,46.72
2022-09-15T12:47:40.269Z,48.54
2022-09-15T12:50:06.856Z,49.91
2022-09-15T12:52:43.510Z,50.47
2022-09-15T12:55:18.241Z,50.76
2022-09-15T12:57:54.512Z,51.15
2022-09-15T13:00:20.808Z,52.47
2022-09-15T13:02:49.284Z,53.56
2022-09-15T13:05:41.195Z,54.25
2022-09-15T13:08:34.633Z,54.83
2022-09-15T13:11:04.743Z,54.95
2022-09-15T13:13:43.668Z,55.59
2022-09-15T13:16:18.268Z,55.68
2022-09-15T13:18:46.995Z,55.07
2022-09-15T13:21:21.170Z,55.13
2022-09-15T13:23:51.921Z,54.54
2022-09-15T13:26:23.955Z,53.78
2022-09-15T13:28:54.136Z,53.42
2022-09-15T13:31:50.841Z,53.31
2022-09-15T13:40:49.605Z,53.20
2022-09-15T13:43:42.334Z,51.67
2022-09-15T13:46:33.895Z,50.45
2022-09-15T13:49:37.931Z,49.67
2022-09-15T13:52:32.200Z,49.83
2022-09-15T13:55:16.929Z,49.63
2022-09-15T14:00:43.750Z,48.71
2022-09-15T14:03:15.310Z,49.41
2022-09-15T14:05:42.040Z,49.53
2022-09-15T14:08:22.903Z,50.25
2022-09-15T14:11:01.035Z,51.89
2022-09-15T14:13:28.976Z,53.29
2022-09-15T14:16:08.026Z,54.39
2022-09-15T14:18:45.172Z,54.96
2022-09-15T14:21:23.341Z,55.68
2022-09-15T14:23:52.096Z,55.81
2022-09-15T14:26:22.243Z,54.80
2022-09-15T14:28:51.874Z,54.10
2022-09-15T14:31:31.260Z,53.23
2022-09-15T14:33:58.086Z,52.85
2022-09-15T14:36:29.863Z,52.68
2022-09-15T14:39:11.126Z,53.11
2022-09-15T14:41:39.104Z,52.80
2022-09-15T14:47:25.603Z,52.76
2022-09-15T14:50:13.643Z,52.06
2022-09-15T14:52:48.148Z,52.46
2022-09-15T14:55:22.578Z,52.52
2022-09-15T14:58:14.228Z,52.68
2022-09-15T15:00:55.887Z,52.77
2022-09-15T15:04:17.965Z,52.42
2022-09-15T15:06:57.316Z,52.27
2022-09-15T15:09:32.413Z,53.71
2022-09-15T15:12:04.553Z,53.51
2022-09-15T15:14:31.238Z,53.55
2022-09-15T15:17:05.784Z,54.04
2022-09-15T15:19:41.035Z,54.45
2022-09-15T15:22:13.555Z,54.36
2022-09-15T15:24:42.745Z,55.05
2022-09-15T15:27:33.532Z,55.21
2022-09-15T15:30:29.594Z,55.57
2022-09-15T15:33:04.554Z,55.63
2022-09-15T15:35:32.862Z,56.10
2022-09-15T15:38:11.425Z,55.83
2022-09-15T15:40:40.471Z,55.87
2022-09-15T15:43:16.820Z,56.04
2022-09-15T15:45:51.912Z,56.03
2022-09-15T15:48:18.235Z,55.78
2022-09-15T15:50:44.561Z,56.94
2022-09-15T15:53:11.122Z,56.70
2022-09-15T15:55:40.626Z,56.77
2022-09-15T15:58:08.864Z,57.39
2022-09-15T16:00:44.130Z,56.73
2022-09-15T16:03:11.463Z,56.62
2022-09-15T16:05:39.208Z,56.41
2022-09-15T16:08:17.744Z,57.08
2022-09-15T16:10:47.876Z,57.10
2022-09-15T16:13:19.286Z,57.90
2022-09-15T16:15:45.800Z,58.17
2022-09-15T16:18:12.943Z,58.93
2022-09-15T16:20:40.177Z,59.00
2022-09-15T16:23:07.601Z,59.32
2022-09-15T16:26:02.298Z,58.86
2022-09-15T16:28:29.508Z,58.91
2022-09-15T16:30:57.003Z,58.66
2022-09-15T16:33:24.848Z,58.46
2022-09-15T16:36:03.525Z,59.03
2022-09-15T16:38:29.885Z,58.87
2022-09-15T16:40:56.520Z,59.03
2022-09-15T16:43:23.093Z,58.96
2022-09-15T16:45:50.590Z,59.01
2022-09-15T16:48:17.324Z,59.38
2022-09-15T16:53:31.133Z,60.49
2022-09-15T16:55:58.553Z,60.85
2022-09-15T16:58:24.884Z,61.13
2022-09-15T17:00:52.566Z,61.29
2022-09-15T17:03:21.384Z,61.20
2022-09-15T17:05:50.021Z,61.45
2022-09-15T17:08:18.800Z,61.47
2022-09-15T17:10:46.070Z,61.39
2022-09-15T17:13:17.478Z,61.65
2022-09-15T17:15:45.862Z,61.87
2022-09-15T17:18:15.267Z,61.89
2022-09-15T17:20:43.872Z,61.87
2022-09-15T17:23:36.588Z,62.32
2022-09-15T17:26:06.621Z,62.30
2022-09-15T17:28:34.689Z,62.26
2022-09-15T17:31:17.155Z,62.25
2022-09-15T17:33:44.295Z,62.51
2022-09-15T17:36:11.307Z,62.78
2022-09-15T17:38:38.229Z,62.99
2022-09-15T17:41:04.595Z,63.40
2022-09-15T17:43:31.828Z,63.77
2022-09-15T17:45:58.537Z,63.96
2022-09-15T17:48:25.104Z,63.73
2022-09-15T17:50:52.285Z,64.07
2022-09-15T17:53:21.487Z,64.15
2022-09-15T17:55:49.169Z,64.37
2022-09-15T17:58:16.113Z,64.49
2022-09-15T18:00:43.704Z,64.67
2022-09-15T18:03:15.526Z,64.95
2022-09-15T18:05:42.195Z,64.98
2022-09-15T18:08:09.532Z,64.95
2022-09-15T18:10:36.467Z,65.46
2022-09-15T18:13:04.202Z,65.51
2022-09-15T18:15:33.959Z,65.67
2022-09-15T18:18:03.936Z,65.56
2022-09-15T18:20:32.670Z,65.54
2022-09-15T18:23:00.049Z,65.82
2022-09-15T18:25:30.777Z,68.10
2022-09-15T18:27:58.555Z,71.37
2022-09-15T18:30:27.575Z,72.99
2022-09-15T18:32:53.967Z,74.16
2022-09-15T18:35:21.222Z,74.79
2022-09-15T18:37:49.699Z,75.55
2022-09-15T18:40:18.407Z,76.34
2022-09-15T18:42:45.600Z,76.78
2022-09-15T18:45:14.510Z,77.13
2022-09-15T18:47:42.385Z,77.52
2022-09-15T18:50:11.935Z,78.21
2022-09-15T18:52:40.613Z,78.55
2022-09-15T18:55:09.093Z,78.66
2022-09-15T18:57:36.837Z,78.55
2022-09-15T19:00:10.082Z,78.42
2022-09-15T19:02:36.684Z,78.36
2022-09-15T19:05:03.426Z,78.27
2022-09-15T19:07:29.743Z,78.29
2022-09-15T19:09:56.701Z,78.32
2022-09-15T19:12:23.177Z,78.30
2022-09-15T19:14:49.527Z,78.42
2022-09-15T19:17:16.573Z,78.45
2022-09-15T19:19:43.426Z,78.56
2022-09-15T19:22:10.314Z,78.55
2022-09-15T19:24:36.797Z,78.58
2022-09-15T19:27:05.149Z,78.44
2022-09-15T19:29:34.645Z,78.74
2022-09-15T19:32:07.060Z,78.78
2022-09-15T19:34:33.704Z,78.69
2022-09-15T19:37:00.127Z,79.01
2022-09-15T19:39:26.501Z,78.64
2022-09-15T19:41:52.890Z,78.75
2022-09-15T19:44:19.249Z,78.43
2022-09-15T19:46:45.707Z,78.48
2022-09-15T19:49:12.608Z,78.93
2022-09-15T19:51:39.306Z,78.71
2022-09-15T19:54:06.775Z,78.63
2022-09-15T19:56:34.069Z,78.95
2022-09-15T19:59:00.632Z,79.08
2022-09-15T20:01:28.928Z,79.45
2022-09-15T20:03:56.653Z,80.16
2022-09-15T20:06:25.109Z,80.64
2022-09-15T20:08:56.728Z,81.45
2022-09-15T20:11:23.357Z,81.46
2022-09-15T20:13:49.672Z,81.80
2022-09-15T20:16:17.840Z,81.93
2022-09-15T20:18:46.615Z,81.93
2022-09-15T20:21:32.515Z,82.10
2022-09-15T20:24:05.250Z,81.79
2022-09-15T20:26:32.007Z,81.72
2022-09-15T20:29:02.542Z,81.58
2022-09-15T20:31:32.869Z,81.62
2022-09-15T20:34:00.541Z,81.75
2022-09-15T20:36:29.921Z,81.71
2022-09-15T20:38:57.035Z,81.73
2022-09-15T20:41:25.481Z,82.02
2022-09-15T20:43:52.190Z,82.14
2022-09-15T20:46:21.128Z,82.08
2022-09-15T20:48:47.742Z,82.16
2022-09-15T20:51:17.122Z,82.28
2022-09-15T20:53:45.967Z,82.08
2022-09-15T20:56:14.075Z,82.06
2022-09-15T20:58:40.955Z,81.87
2022-09-15T21:01:11.657Z,81.77
2022-09-15T21:03:40.245Z,81.64
2022-09-15T21:06:09.298Z,81.82
2022-09-15T21:08:36.365Z,81.76
2022-09-15T21:11:04.998Z,81.80
2022-09-15T21:13:33.638Z,82.01
2022-09-15T21:16:02.433Z,81.93
2022-09-15T21:18:34.363Z,81.86
2022-09-15T21:21:09.837Z,81.99
2022-09-15T21:23:42.413Z,82.06
2022-09-15T21:26:14.811Z,81.95
2022-09-15T21:28:43.369Z,82.14
2022-09-15T21:31:12.531Z,82.16
2022-09-15T21:33:39.605Z,82.17
2022-09-15T21:36:09.392Z,82.19
2022-09-15T21:38:40.359Z,82.30
2022-09-15T21:41:09.142Z,82.30
2022-09-15T21:43:37.367Z,81.89
2022-09-15T21:46:05.336Z,81.88
2022-09-15T21:48:33.126Z,82.35
2022-09-15T21:50:59.626Z,82.42
2022-09-15T21:53:27.002Z,82.33
2022-09-15T21:55:53.661Z,82.62
2022-09-15T21:58:21.859Z,82.57
2022-09-15T22:00:49.584Z,82.57
2022-09-15T22:03:17.393Z,82.78
2022-09-15T22:05:47.820Z,83.12
2022-09-15T22:08:16.147Z,83.14
2022-09-15T22:10:44.254Z,82.75
2022-09-15T22:13:11.361Z,83.43
2022-09-15T22:15:38.197Z,83.43
2022-09-15T22:18:04.717Z,83.43
2022-09-15T22:20:31.065Z,83.71
2022-09-15T22:23:00.599Z,83.49
2022-09-15T22:25:27.080Z,83.65
2022-09-15T22:27:53.412Z,83.38
2022-09-15T22:30:19.760Z,83.37
2022-09-15T22:32:46.141Z,83.19
2022-09-15T22:35:12.542Z,83.19
2022-09-15T22:37:38.867Z,83.29
2022-09-15T22:40:05.814Z,83.17
2022-09-15T22:42:32.214Z,83.36
2022-09-15T22:44:58.542Z,83.29
2022-09-15T22:47:24.884Z,83.19
2022-09-15T22:49:51.216Z,83.48
2022-09-15T22:52:17.585Z,83.37
2022-09-15T22:54:43.909Z,83.45
2022-09-15T22:57:10.314Z,83.47
2022-09-15T22:59:36.654Z,83.49
2022-09-15T23:02:03.097Z,83.35
2022-09-15T23:04:29.566Z,83.43
2022-09-15T23:06:55.917Z,83.26
2022-09-15T23:09:22.238Z,83.46
2022-09-15T23:11:48.551Z,83.56
2022-09-15T23:14:17.181Z,83.49
2022-09-15T23:16:44.278Z,83.79
2022-09-15T23:19:14.366Z,84.05
2022-09-15T23:21:40.828Z,83.80
2022-09-15T23:24:08.629Z,84.08
2022-09-15T23:26:34.968Z,84.59
2022-09-15T23:29:01.282Z,84.80
2022-09-15T23:31:27.694Z,84.87
2022-09-15T23:33:54.033Z,85.01
2022-09-15T23:36:20.468Z,85.00
2022-09-15T23:38:47.819Z,84.72
2022-09-15T23:41:15.759Z,84.96
2022-09-15T23:43:42.125Z,84.79
2022-09-15T23:46:09.269Z,84.65
2022-09-15T23:48:35.970Z,84.82
2022-09-15T23:51:02.907Z,84.77
2022-09-15T23:53:29.710Z,84.95
2022-09-15T23:55:56.524Z,85.06
2022-09-15T23:58:22.897Z,84.99
